createdAt,value
2022-11-29T00:01:12.027Z,10.10
2022-11-29T00:03:41.188Z,10.10
2022-11-29T00:06:12.003Z,10.09
2022-11-29T00:08:41.262Z,10.07
2022-11-29T00:11:11.130Z,10.06
2022-11-29T00:13:39.070Z,10.02
2022-11-29T00:16:08.615Z,10.06
2022-11-29T00:18:36.696Z,10.04
2022-11-29T00:21:08.124Z,10.03
2022-11-29T00:23:36.088Z,10.03
2022-11-29T00:26:05.454Z,10.02
2022-11-29T00:28:33.180Z,10.01
2022-11-29T00:31:00.999Z,10.01
2022-11-29T00:33:29.163Z,10.01
2022-11-29T00:35:56.973Z,10.00
2022-11-29T00:38:25.988Z,10.00
2022-11-29T00:40:53.675Z,10.00
2022-11-29T00:43:21.461Z,9.98
2022-11-29T00:45:49.160Z,9.99
2022-11-29T00:48:16.989Z,9.98
2022-11-29T00:50:44.737Z,9.96
2022-11-29T00:53:12.499Z,9.96
2022-11-29T00:55:41.692Z,9.96
2022-11-29T00:58:09.371Z,9.95
2022-11-29T01:00:37.066Z,9.94
2022-11-29T01:03:04.818Z,9.93
2022-11-29T01:05:33.009Z,9.92
2022-11-29T01:08:00.736Z,9.92
2022-11-29T01:10:28.935Z,9.90
2022-11-29T01:12:58.066Z,9.93
2022-11-29T01:15:25.897Z,9.93
2022-11-29T01:17:53.769Z,9.93
2022-11-29T01:20:21.838Z,9.93
2022-11-29T01:22:49.538Z,9.92
2022-11-29T01:25:19.266Z,9.94
2022-11-29T01:27:47.904Z,9.93
2022-11-29T01:30:17.219Z,9.94
2022-11-29T01:32:44.957Z,9.94
2022-11-29T01:35:12.704Z,9.93
2022-11-29T01:37:40.434Z,9.93
2022-11-29T01:40:09.449Z,9.93
2022-11-29T01:42:37.191Z,9.92
2022-11-29T01:45:16.897Z,9.92
2022-11-29T01:47:47.130Z,9.92
2022-11-29T01:50:15.624Z,9.92
2022-11-29T01:52:43.607Z,9.90
2022-11-29T01:55:11.545Z,9.89
2022-11-29T01:57:42.133Z,9.87
2022-11-29T02:00:14.238Z,9.88
2022-11-29T02:02:45.435Z,9.86
2022-11-29T02:05:16.704Z,9.85
2022-11-29T02:07:47.059Z,9.86
2022-11-29T02:10:16.532Z,9.86
2022-11-29T02:12:55.275Z,9.84
2022-11-29T02:15:34.416Z,9.84
2022-11-29T02:18:07.661Z,9.84
2022-11-29T02:21:11.036Z,9.85
2022-11-29T02:24:11.240Z,9.82
2022-11-29T02:27:12.837Z,9.81
2022-11-29T02:30:09.964Z,9.79
2022-11-29T02:33:15.656Z,9.78
2022-11-29T02:36:03.704Z,9.79
2022-11-29T02:38:51.183Z,9.79
2022-11-29T02:41:36.881Z,9.79
2022-11-29T02:44:24.392Z,9.79
2022-11-29T02:47:09.262Z,9.78
2022-11-29T02:50:00.193Z,9.76
2022-11-29T02:52:36.189Z,9.77
2022-11-29T02:55:10.518Z,9.75
2022-11-29T02:57:45.636Z,9.77
2022-11-29T03:00:18.962Z,9.77
2022-11-29T03:02:54.154Z,9.77
2022-11-29T03:05:30.518Z,9.75
2022-11-29T03:08:07.308Z,9.77
2022-11-29T03:10:44.242Z,9.76
2022-11-29T03:13:16.501Z,9.78
2022-11-29T03:15:53.351Z,9.75
2022-11-29T03:18:31.362Z,9.76
2022-11-29T03:21:09.413Z,9.76
2022-11-29T03:23:38.726Z,9.76
2022-11-29T03:26:09.645Z,9.76
2022-11-29T03:28:42.541Z,9.76
2022-11-29T03:31:16.980Z,9.73
2022-11-29T03:33:53.583Z,9.77
2022-11-29T03:36:32.212Z,9.76
2022-11-29T03:39:04.750Z,9.69
2022-11-29T03:41:39.065Z,9.76
2022-11-29T03:44:12.436Z,9.75
2022-11-29T03:46:47.387Z,9.75
2022-11-29T03:49:21.768Z,9.74
2022-11-29T03:51:59.682Z,9.74
2022-11-29T03:54:30.669Z,9.73
2022-11-29T03:56:59.027Z,9.71
2022-11-29T03:59:38.992Z,9.71
2022-11-29T04:02:32.622Z,9.71
2022-11-29T04:05:36.732Z,9.69
2022-11-29T04:08:33.524Z,9.68
2022-11-29T04:11:24.154Z,9.68
2022-11-29T04:14:28.779Z,9.69
2022-11-29T04:17:33.757Z,9.68
2022-11-29T04:20:26.819Z,9.68
2022-11-29T04:23:19.038Z,9.68
2022-11-29T04:26:27.772Z,9.61
2022-11-29T04:29:16.741Z,9.64
2022-11-29T04:32:03.900Z,9.64
2022-11-29T04:34:51.192Z,9.63
2022-11-29T04:37:46.284Z,9.62
2022-11-29T04:40:27.834Z,9.61
2022-11-29T04:43:11.498Z,9.61
2022-11-29T04:46:11.725Z,9.61
2022-11-29T04:48:52.440Z,9.61
2022-11-29T04:51:32.605Z,9.61
2022-11-29T04:54:09.790Z,9.61
2022-11-29T04:56:43.925Z,9.62
2022-11-29T04:59:19.560Z,9.62
2022-11-29T05:01:59.946Z,9.63
2022-11-29T05:04:37.242Z,9.63
2022-11-29T05:07:11.332Z,9.60
2022-11-29T05:09:51.092Z,9.63
2022-11-29T05:12:25.168Z,9.63
2022-11-29T05:15:15.502Z,9.64
2022-11-29T05:17:56.817Z,9.63
2022-11-29T05:20:35.417Z,9.63
2022-11-29T05:23:24.298Z,9.63
2022-11-29T05:25:58.202Z,9.62
2022-11-29T05:28:34.244Z,9.62
2022-11-29T05:31:20.201Z,9.63
2022-11-29T05:34:19.710Z,9.63
2022-11-29T05:36:56.834Z,9.62
2022-11-29T05:39:40.754Z,9.61
2022-11-29T05:42:36.921Z,9.61
2022-11-29T05:45:13.635Z,9.59
2022-11-29T05:47:51.049Z,9.59
2022-11-29T05:50:27.964Z,9.57
2022-11-29T05:53:03.096Z,9.55
2022-11-29T05:55:41.386Z,9.55
2022-11-29T05:58:17.303Z,9.54
2022-11-29T06:00:50.803Z,9.54
2022-11-29T06:03:30.554Z,9.54
2022-11-29T06:06:01.719Z,9.55
2022-11-29T06:08:37.953Z,9.53
2022-11-29T06:11:14.583Z,9.52
2022-11-29T06:13:52.069Z,9.49
2022-11-29T06:16:56.844Z,9.51
2022-11-29T06:20:04.223Z,9.52
2022-11-29T06:22:52.880Z,9.50
2022-11-29T06:25:38.211Z,9.49
2022-11-29T06:28:27.757Z,9.50
2022-11-29T06:31:02.138Z,9.50
2022-11-29T06:33:39.527Z,9.49
2022-11-29T06:36:16.867Z,9.50
2022-11-29T06:38:45.016Z,9.50
2022-11-29T06:41:18.627Z,9.49
2022-11-29T06:43:47.017Z,9.49
2022-11-29T06:46:24.871Z,9.48
2022-11-29T06:49:02.152Z,9.47
2022-11-29T06:51:37.996Z,9.48
2022-11-29T06:54:19.590Z,9.48
2022-11-29T06:56:56.760Z,9.48
2022-11-29T06:59:39.903Z,9.48
2022-11-29T07:02:35.580Z,9.50
2022-11-29T07:05:13.891Z,9.51
2022-11-29T07:07:43.431Z,9.49
2022-11-29T07:10:17.353Z,9.49
2022-11-29T07:12:45.991Z,9.48
2022-11-29T07:15:19.046Z,9.46
2022-11-29T07:18:11.246Z,9.45
2022-11-29T07:20:44.975Z,9.46
2022-11-29T07:23:29.507Z,9.47
2022-11-29T07:26:09.616Z,9.48
2022-11-29T07:28:55.757Z,9.48
2022-11-29T07:31:35.523Z,9.50
2022-11-29T07:34:14.336Z,9.49
2022-11-29T07:36:50.468Z,9.49
2022-11-29T07:39:30.310Z,9.48
2022-11-29T07:42:06.820Z,9.48
2022-11-29T07:44:40.093Z,9.49
2022-11-29T07:47:09.680Z,9.46
2022-11-29T07:49:37.466Z,9.46
2022-11-29T07:52:05.224Z,9.48
2022-11-29T07:54:34.292Z,9.48
2022-11-29T07:57:02.006Z,9.48
2022-11-29T07:59:29.660Z,9.46
2022-11-29T08:01:57.400Z,9.46
2022-11-29T08:04:25.226Z,9.46
2022-11-29T08:06:52.948Z,9.45
2022-11-29T08:09:20.742Z,9.45
2022-11-29T08:11:50.006Z,9.45
2022-11-29T08:14:17.730Z,9.47
2022-11-29T08:16:45.518Z,9.56
2022-11-29T08:19:13.341Z,9.68
2022-11-29T08:21:44.322Z,9.83
2022-11-29T08:24:12.030Z,9.99
2022-11-29T08:26:39.996Z,10.15
2022-11-29T08:29:09.394Z,10.27
2022-11-29T08:31:38.661Z,10.48
2022-11-29T08:34:07.227Z,10.64
2022-11-29T08:36:35.133Z,10.79
2022-11-29T08:39:08.997Z,10.89
2022-11-29T08:41:37.432Z,11.04
2022-11-29T08:44:06.036Z,11.15
2022-11-29T08:46:53.209Z,11.23
2022-11-29T08:49:20.970Z,11.32
2022-11-29T08:51:48.619Z,11.36
2022-11-29T08:54:15.338Z,11.37
2022-11-29T08:57:31.072Z,11.39
2022-11-29T08:59:30.730Z,11.45
2022-11-29T09:01:59.914Z,11.48
2022-11-29T09:04:27.762Z,11.47
2022-11-29T09:06:55.427Z,11.50
2022-11-29T09:09:23.140Z,11.51
2022-11-29T09:11:50.848Z,11.54
2022-11-29T09:14:19.923Z,11.54
2022-11-29T09:16:47.689Z,11.58
2022-11-29T09:19:16.947Z,11.63
2022-11-29T09:21:44.591Z,11.60
2022-11-29T09:24:12.286Z,11.62
2022-11-29T09:26:41.801Z,11.62
2022-11-29T09:29:10.224Z,11.63
2022-11-29T09:31:37.965Z,11.65
2022-11-29T09:34:05.702Z,11.65
2022-11-29T09:36:35.018Z,11.67
2022-11-29T09:39:03.692Z,11.58
2022-11-29T09:41:53.067Z,11.41
2022-11-29T09:44:27.947Z,11.20
2022-11-29T09:47:04.765Z,11.00
2022-11-29T09:49:51.962Z,10.83
2022-11-29T09:52:34.970Z,10.69
2022-11-29T09:55:17.546Z,10.59
2022-11-29T09:57:46.248Z,10.50
2022-11-29T10:00:17.080Z,10.41
2022-11-29T10:02:49.504Z,10.34
2022-11-29T10:05:22.910Z,10.27
2022-11-29T10:07:57.622Z,10.24
2022-11-29T10:10:29.861Z,10.21
2022-11-29T10:13:06.216Z,10.19
2022-11-29T10:15:40.234Z,10.18
2022-11-29T10:18:19.836Z,10.28
2022-11-29T10:20:50.696Z,10.44
2022-11-29T10:23:25.002Z,10.62
2022-11-29T10:25:54.650Z,10.80
2022-11-29T10:28:25.829Z,10.92
2022-11-29T10:30:55.649Z,11.04
2022-11-29T10:33:26.663Z,11.12
2022-11-29T10:35:58.785Z,11.29
2022-11-29T10:38:31.797Z,11.31
2022-11-29T10:41:05.532Z,11.23
2022-11-29T10:43:33.294Z,11.06
2022-11-29T10:46:02.543Z,10.94
2022-11-29T10:48:33.994Z,10.79
2022-11-29T10:51:03.437Z,10.67
2022-11-29T10:53:37.091Z,10.57
2022-11-29T10:56:15.109Z,10.50
2022-11-29T10:58:56.433Z,10.43
2022-11-29T11:01:26.374Z,10.38
2022-11-29T11:03:56.377Z,10.34
2022-11-29T11:06:27.419Z,10.31
2022-11-29T11:08:58.529Z,10.28
2022-11-29T11:11:30.152Z,10.22
2022-11-29T11:14:02.478Z,10.17
2022-11-29T11:16:36.760Z,10.12
2022-11-29T11:19:26.289Z,10.08
2022-11-29T11:21:54.764Z,10.06
2022-11-29T11:24:26.195Z,10.04
2022-11-29T11:26:54.065Z,10.01
2022-11-29T11:29:26.567Z,9.98
2022-11-29T11:31:56.885Z,10.04
2022-11-29T11:34:34.184Z,10.15
2022-11-29T11:37:21.260Z,10.17
2022-11-29T11:39:52.286Z,10.18
2022-11-29T11:42:37.934Z,10.15
2022-11-29T11:45:22.032Z,10.10
2022-11-29T11:47:52.970Z,10.09
2022-11-29T11:50:29.361Z,10.17
2022-11-29T11:52:59.693Z,10.32
2022-11-29T11:55:34.258Z,10.50
2022-11-29T11:58:09.687Z,10.68
2022-11-29T12:03:37.339Z,11.04
2022-11-29T12:06:25.722Z,11.20
2022-11-29T12:08:58.561Z,11.33
2022-11-29T12:11:32.569Z,11.47
2022-11-29T12:14:03.202Z,11.58
2022-11-29T12:16:36.882Z,11.63
2022-11-29T12:19:14.768Z,11.55
2022-11-29T12:21:46.696Z,11.39
2022-11-29T12:24:22.673Z,11.22
2022-11-29T12:26:58.349Z,11.01
2022-11-29T12:29:30.170Z,10.84
2022-11-29T12:32:19.010Z,10.71
2022-11-29T12:35:12.656Z,10.62
2022-11-29T12:37:52.398Z,10.55
2022-11-29T12:40:27.337Z,10.49
2022-11-29T12:43:04.435Z,10.47
2022-11-29T12:45:46.176Z,10.43
2022-11-29T12:48:26.704Z,10.40
2022-11-29T12:51:03.495Z,10.34
2022-11-29T12:53:48.873Z,10.29
2022-11-29T12:56:25.137Z,10.24
2022-11-29T12:59:13.343Z,10.22
2022-11-29T13:02:03.976Z,10.20
2022-11-29T13:04:39.886Z,10.19
2022-11-29T13:07:17.771Z,10.18
2022-11-29T13:10:06.064Z,10.17
2022-11-29T13:12:38.553Z,10.13
2022-11-29T13:15:15.697Z,10.11
2022-11-29T13:17:53.013Z,10.09
2022-11-29T13:20:31.745Z,10.08
2022-11-29T13:23:06.666Z,10.06
2022-11-29T13:25:38.605Z,10.06
2022-11-29T13:28:08.406Z,10.04
2022-11-29T13:30:39.670Z,10.01
2022-11-29T13:33:17.095Z,10.15
2022-11-29T13:35:52.193Z,10.27
2022-11-29T13:38:26.381Z,10.43
2022-11-29T13:40:59.200Z,10.63
2022-11-29T13:43:31.898Z,10.80
2022-11-29T13:46:16.069Z,10.97
2022-11-29T13:48:51.802Z,11.12
2022-11-29T13:51:29.466Z,11.29
2022-11-29T13:53:59.308Z,11.47
2022-11-29T13:56:32.640Z,11.39
2022-11-29T13:59:01.489Z,11.30
2022-11-29T14:01:30.668Z,11.15
2022-11-29T14:04:07.839Z,10.99
2022-11-29T14:06:37.719Z,10.79
2022-11-29T14:09:27.356Z,10.77
2022-11-29T14:12:05.058Z,10.70
2022-11-29T14:14:39.217Z,10.62
2022-11-29T14:17:48.737Z,10.56
2022-11-29T14:20:53.388Z,10.51
2022-11-29T14:23:43.142Z,10.44
2022-11-29T14:26:28.771Z,10.41
2022-11-29T14:28:57.770Z,10.38
2022-11-29T14:31:52.088Z,10.37
2022-11-29T14:34:38.939Z,10.34
2022-11-29T14:37:19.466Z,10.32
2022-11-29T14:39:48.923Z,10.25
2022-11-29T14:42:19.173Z,10.28
2022-11-29T14:44:52.181Z,10.32
2022-11-29T14:47:25.501Z,10.38
2022-11-29T14:49:56.788Z,10.44
2022-11-29T14:52:31.556Z,10.45
2022-11-29T14:55:05.968Z,10.44
2022-11-29T14:57:54.945Z,10.44
2022-11-29T15:00:24.391Z,10.43
2022-11-29T15:02:54.465Z,10.39
2022-11-29T15:05:30.482Z,10.37
2022-11-29T15:08:08.500Z,10.34
2022-11-29T15:10:40.163Z,10.35
2022-11-29T15:13:13.246Z,10.47
2022-11-29T15:16:04.257Z,10.66
2022-11-29T15:18:59.689Z,10.87
2022-11-29T15:21:34.471Z,10.94
2022-11-29T15:24:10.393Z,11.00
2022-11-29T15:26:38.137Z,10.98
2022-11-29T15:29:15.569Z,10.89
2022-11-29T15:31:44.732Z,10.81
2022-11-29T15:34:28.533Z,10.71
2022-11-29T15:36:57.700Z,10.64
2022-11-29T15:39:28.574Z,10.57
2022-11-29T15:42:01.685Z,10.52
2022-11-29T15:44:32.559Z,10.49
2022-11-29T15:47:16.643Z,10.44
2022-11-29T15:49:44.469Z,10.42
2022-11-29T15:52:20.637Z,10.39
2022-11-29T15:54:53.193Z,10.38
2022-11-29T15:57:26.640Z,10.36
2022-11-29T15:59:56.970Z,10.34
2022-11-29T16:02:27.725Z,10.33
2022-11-29T16:04:58.989Z,10.32
2022-11-29T16:07:32.357Z,10.32
2022-11-29T16:10:05.167Z,10.30
2022-11-29T16:12:33.319Z,10.29
2022-11-29T16:15:02.128Z,10.28
2022-11-29T16:17:32.729Z,10.29
2022-11-29T16:20:23.476Z,10.28
2022-11-29T16:23:05.945Z,10.29
2022-11-29T16:25:37.558Z,10.28
2022-11-29T16:28:06.957Z,10.28
2022-11-29T16:30:34.728Z,10.28
2022-11-29T16:33:03.874Z,10.28
2022-11-29T16:35:33.856Z,10.27
2022-11-29T16:38:05.676Z,10.28
2022-11-29T16:40:35.682Z,10.27
2022-11-29T16:43:09.279Z,10.28
2022-11-29T16:45:38.516Z,10.28
2022-11-29T16:48:29.649Z,10.27
2022-11-29T16:51:16.171Z,10.26
2022-11-29T16:53:47.788Z,10.24
2022-11-29T16:56:17.763Z,10.24
2022-11-29T16:59:25.740Z,10.23
2022-11-29T17:01:36.339Z,10.23
2022-11-29T17:04:04.138Z,10.22
2022-11-29T17:06:31.992Z,10.20
2022-11-29T17:09:01.093Z,10.20
2022-11-29T17:11:28.871Z,10.19
2022-11-29T17:13:56.685Z,10.19
2022-11-29T17:16:25.859Z,10.19
2022-11-29T17:18:53.883Z,10.18
2022-11-29T17:21:23.966Z,10.16
2022-11-29T17:23:52.308Z,10.17
2022-11-29T17:26:22.326Z,10.19
2022-11-29T17:28:51.750Z,10.19
2022-11-29T17:31:21.544Z,10.20
2022-11-29T17:33:49.754Z,10.18
2022-11-29T17:36:19.313Z,10.18
2022-11-29T17:38:47.394Z,10.17
2022-11-29T17:41:17.268Z,10.18
2022-11-29T17:43:46.264Z,10.17
2022-11-29T17:46:15.856Z,10.17
2022-11-29T17:48:46.197Z,10.16
2022-11-29T17:51:43.570Z,10.17
2022-11-29T17:54:04.367Z,10.16
2022-11-29T17:56:32.217Z,10.16
2022-11-29T17:59:03.463Z,10.17
2022-11-29T18:01:33.387Z,10.18
2022-11-29T18:04:02.509Z,10.17
2022-11-29T18:06:31.826Z,10.16
2022-11-29T18:09:01.366Z,10.15
2022-11-29T18:11:30.686Z,10.15
2022-11-29T18:13:59.636Z,10.15
2022-11-29T18:16:30.487Z,10.15
2022-11-29T18:19:00.618Z,10.14
2022-11-29T18:21:28.927Z,10.11
2022-11-29T18:23:56.774Z,10.11
2022-11-29T18:26:26.353Z,10.11
2022-11-29T18:28:54.278Z,10.08
2022-11-29T18:31:23.837Z,10.10
2022-11-29T18:33:54.995Z,10.13
2022-11-29T18:36:24.364Z,10.15
2022-11-29T18:38:56.685Z,10.16
2022-11-29T18:41:25.677Z,10.17
2022-11-29T18:43:57.824Z,10.15
2022-11-29T18:46:26.289Z,10.19
2022-11-29T18:48:55.436Z,10.19
2022-11-29T18:51:23.081Z,10.19
2022-11-29T18:53:50.736Z,10.19
2022-11-29T18:56:22.127Z,10.18
2022-11-29T18:58:58.197Z,10.17
2022-11-29T19:01:27.971Z,10.18
2022-11-29T19:03:59.573Z,10.15
2022-11-29T19:06:32.839Z,10.24
2022-11-29T19:09:06.212Z,10.25
2022-11-29T19:11:34.508Z,10.28
2022-11-29T19:14:04.520Z,10.28
2022-11-29T19:16:34.825Z,10.24
2022-11-29T19:19:04.293Z,10.24
2022-11-29T19:21:34.390Z,10.23
2022-11-29T19:24:03.942Z,10.23
2022-11-29T19:26:32.813Z,10.22
2022-11-29T19:29:02.107Z,10.20
2022-11-29T19:31:30.283Z,10.16
2022-11-29T19:33:58.739Z,10.16
2022-11-29T19:36:29.209Z,10.16
2022-11-29T19:38:57.625Z,10.13
2022-11-29T19:41:26.935Z,10.13
2022-11-29T19:43:54.904Z,10.11
2022-11-29T19:46:24.936Z,10.10
2022-11-29T19:48:53.638Z,10.10
2022-11-29T19:51:22.381Z,10.08
2022-11-29T19:53:53.403Z,10.05
2022-11-29T19:56:21.897Z,10.08
2022-11-29T19:58:49.855Z,10.06
2022-11-29T20:01:20.260Z,10.04
2022-11-29T20:03:48.029Z,10.05
2022-11-29T20:06:16.781Z,10.08
2022-11-29T20:08:45.304Z,10.07
2022-11-29T20:11:16.347Z,10.07
2022-11-29T20:13:46.623Z,10.07
2022-11-29T20:16:15.716Z,10.05
2022-11-29T20:18:50.376Z,10.06
2022-11-29T20:21:21.742Z,10.06
2022-11-29T20:23:49.876Z,10.05
2022-11-29T20:26:21.184Z,10.05
2022-11-29T20:28:48.925Z,10.05
2022-11-29T20:31:21.247Z,10.04
2022-11-29T20:33:50.796Z,10.03
2022-11-29T20:36:29.781Z,10.02
2022-11-29T20:39:04.951Z,9.99
2022-11-29T20:41:42.606Z,9.99
2022-11-29T20:44:15.689Z,9.94
2022-11-29T20:46:43.691Z,9.97
2022-11-29T20:49:14.250Z,9.93
2022-11-29T20:51:50.471Z,9.93
2022-11-29T20:54:20.293Z,9.94
2022-11-29T20:56:49.315Z,9.93
2022-11-29T20:59:17.172Z,9.89
2022-11-29T21:01:44.884Z,9.89
2022-11-29T21:04:12.590Z,9.87
2022-11-29T21:06:40.792Z,9.87
2022-11-29T21:09:08.794Z,9.87
2022-11-29T21:11:36.964Z,9.88
2022-11-29T21:14:09.078Z,9.86
2022-11-29T21:16:37.152Z,9.84
2022-11-29T21:19:05.596Z,9.87
2022-11-29T21:21:38.724Z,9.85
2022-11-29T21:24:13.107Z,9.84
2022-11-29T21:26:45.697Z,9.83
2022-11-29T21:29:17.185Z,9.83
2022-11-29T21:31:45.660Z,9.82
2022-11-29T21:34:13.395Z,9.82
2022-11-29T21:36:41.817Z,9.81
2022-11-29T21:39:13.481Z,9.79
2022-11-29T21:41:41.487Z,9.79
2022-11-29T21:44:09.276Z,9.79
2022-11-29T21:46:38.380Z,9.76
2022-11-29T21:49:06.232Z,9.78
2022-11-29T21:51:34.576Z,9.79
2022-11-29T21:54:02.704Z,9.81
2022-11-29T21:56:30.411Z,9.73
2022-11-29T21:58:58.127Z,9.81
2022-11-29T22:01:27.191Z,9.82
2022-11-29T22:03:56.822Z,9.83
2022-11-29T22:06:26.143Z,9.83
2022-11-29T22:08:53.863Z,9.83
2022-11-29T22:11:31.499Z,9.83
2022-11-29T22:14:16.197Z,9.82
2022-11-29T22:16:48.195Z,9.83
2022-11-29T22:19:18.668Z,9.84
2022-11-29T22:21:48.130Z,9.82
2022-11-29T22:24:17.397Z,9.82
2022-11-29T22:26:45.389Z,9.82
2022-11-29T22:29:14.685Z,9.84
2022-11-29T22:31:43.741Z,9.85
2022-11-29T22:34:12.411Z,9.84
2022-11-29T22:36:42.321Z,9.84
2022-11-29T22:39:12.621Z,9.82
2022-11-29T22:41:41.258Z,9.81
2022-11-29T22:44:08.967Z,9.81
2022-11-29T22:46:36.745Z,9.81
2022-11-29T22:49:04.781Z,9.82
2022-11-29T22:51:34.750Z,9.81
2022-11-29T22:54:05.622Z,9.79
2022-11-29T22:56:35.038Z,9.78
2022-11-29T22:59:02.856Z,9.78
2022-11-29T23:01:32.436Z,9.78
2022-11-29T23:04:03.927Z,9.76
2022-11-29T23:06:33.787Z,9.77
2022-11-29T23:09:07.774Z,9.76
2022-11-29T23:11:35.471Z,9.75
2022-11-29T23:14:03.373Z,9.75
2022-11-29T23:16:32.712Z,9.76
2022-11-29T23:19:01.128Z,9.75
2022-11-29T23:21:30.477Z,9.75
2022-11-29T23:24:00.803Z,9.75
2022-11-29T23:26:33.865Z,9.74
2022-11-29T23:29:01.537Z,9.75
2022-11-29T23:31:29.644Z,9.73
2022-11-29T23:33:57.366Z,9.73
2022-11-29T23:36:25.032Z,9.73
2022-11-29T23:38:52.869Z,9.73
2022-11-29T23:41:20.629Z,9.74
2022-11-29T23:43:49.633Z,9.74
2022-11-29T23:46:19.247Z,9.74
2022-11-29T23:48:48.463Z,9.74
2022-11-29T23:51:17.075Z,9.73
2022-11-29T23:53:44.843Z,9.73
2022-11-29T23:56:14.834Z,9.72
2022-11-29T23:58:43.442Z,9.72
